sensor_id;sensor_type;location;lat;lon;timestamp;P1;durP1;ratioP1;P2;durP2;ratioP2
11187;SDS011;5650;52.700;7.306;2022-12-29T00:01:05;2.67;;;2.22;;
11187;SDS011;5650;52.700;7.306;2022-12-29T00:03:32;4.15;;;2.45;;
11187;SDS011;5650;52.700;7.306;2022-12-29T00:06:05;8.20;;;2.90;;
11187;SDS011;5650;52.700;7.306;2022-12-29T00:08:32;2.85;;;2.40;;
11187;SDS011;5650;52.700;7.306;2022-12-29T00:11:05;2.92;;;2.45;;
11187;SDS011;5650;52.700;7.306;2022-12-29T00:13:36;3.25;;;2.75;;
11187;SDS011;5650;52.700;7.306;2022-12-29T00:16:26;2.72;;;2.53;;
11187;SDS011;5650;52.700;7.306;2022-12-29T00:18:57;3.88;;;2.40;;
11187;SDS011;5650;52.700;7.306;2022-12-29T00:21:25;3.25;;;2.50;;
11187;SDS011;5650;52.700;7.306;2022-12-29T00:24:12;3.13;;;2.15;;
11187;SDS011;5650;52.700;7.306;2022-12-29T00:26:59;2.42;;;2.17;;
11187;SDS011;5650;52.700;7.306;2022-12-29T00:29:53;2.45;;;2.10;;
11187;SDS011;5650;52.700;7.306;2022-12-29T00:32:39;2.67;;;2.30;;
11187;SDS011;5650;52.700;7.306;2022-12-29T00:35:25;2.42;;;2.17;;
11187;SDS011;5650;52.700;7.306;2022-12-29T00:37:54;2.95;;;1.92;;
11187;SDS011;5650;52.700;7.306;2022-12-29T00:40:43;2.65;;;2.13;;
11187;SDS011;5650;52.700;7.306;2022-12-29T00:43:31;2.45;;;2.05;;
11187;SDS011;5650;52.700;7.306;2022-12-29T00:46:15;2.20;;;2.00;;
11187;SDS011;5650;52.700;7.306;2022-12-29T00:48:44;2.30;;;1.90;;
11187;SDS011;5650;52.700;7.306;2022-12-29T00:51:29;2.33;;;2.03;;
11187;SDS011;5650;52.700;7.306;2022-12-29T00:53:56;2.10;;;1.73;;
11187;SDS011;5650;52.700;7.306;2022-12-29T00:56:23;2.33;;;1.90;;
11187;SDS011;5650;52.700;7.306;2022-12-29T00:58:53;2.67;;;2.22;;
11187;SDS011;5650;52.700;7.306;2022-12-29T01:01:29;2.15;;;1.67;;
11187;SDS011;5650;52.700;7.306;2022-12-29T01:04:00;3.38;;;1.80;;
11187;SDS011;5650;52.700;7.306;2022-12-29T01:06:28;3.00;;;2.08;;
11187;SDS011;5650;52.700;7.306;2022-12-29T01:08:58;5.63;;;2.22;;
11187;SDS011;5650;52.700;7.306;2022-12-29T01:11:51;2.25;;;2.05;;
11187;SDS011;5650;52.700;7.306;2022-12-29T01:14:21;2.20;;;2.00;;
11187;SDS011;5650;52.700;7.306;2022-12-29T01:16:50;2.78;;;1.80;;
11187;SDS011;5650;52.700;7.306;2022-12-29T01:19:19;2.08;;;1.70;;
11187;SDS011;5650;52.700;7.306;2022-12-29T01:21:46;3.67;;;1.70;;
11187;SDS011;5650;52.700;7.306;2022-12-29T01:24:14;2.55;;;1.70;;
11187;SDS011;5650;52.700;7.306;2022-12-29T01:26:42;2.92;;;1.85;;
11187;SDS011;5650;52.700;7.306;2022-12-29T01:29:09;4.65;;;1.80;;
11187;SDS011;5650;52.700;7.306;2022-12-29T01:31:36;2.70;;;1.65;;
11187;SDS011;5650;52.700;7.306;2022-12-29T01:34:14;3.00;;;2.00;;
11187;SDS011;5650;52.700;7.306;2022-12-29T01:36:43;1.88;;;1.67;;
11187;SDS011;5650;52.700;7.306;2022-12-29T01:39:10;4.28;;;1.58;;
11187;SDS011;5650;52.700;7.306;2022-12-29T01:41:37;3.47;;;2.00;;
11187;SDS011;5650;52.700;7.306;2022-12-29T01:47:13;1.95;;;1.75;;
11187;SDS011;5650;52.700;7.306;2022-12-29T01:49:44;1.83;;;1.52;;
11187;SDS011;5650;52.700;7.306;2022-12-29T01:52:13;2.53;;;1.77;;
11187;SDS011;5650;52.700;7.306;2022-12-29T01:54:41;1.98;;;1.63;;
11187;SDS011;5650;52.700;7.306;2022-12-29T01:57:13;1.40;;;1.30;;
11187;SDS011;5650;52.700;7.306;2022-12-29T01:59:45;2.13;;;1.67;;
11187;SDS011;5650;52.700;7.306;2022-12-29T02:02:15;2.22;;;1.40;;
11187;SDS011;5650;52.700;7.306;2022-12-29T02:04:43;1.40;;;1.30;;
11187;SDS011;5650;52.700;7.306;2022-12-29T02:07:11;4.15;;;1.88;;
11187;SDS011;5650;52.700;7.306;2022-12-29T02:09:45;1.70;;;1.52;;
11187;SDS011;5650;52.700;7.306;2022-12-29T02:12:14;1.67;;;1.30;;
11187;SDS011;5650;52.700;7.306;2022-12-29T02:14:42;2.70;;;1.30;;
11187;SDS011;5650;52.700;7.306;2022-12-29T02:17:12;1.50;;;1.40;;
11187;SDS011;5650;52.700;7.306;2022-12-29T02:20:13;2.10;;;1.45;;
11187;SDS011;5650;52.700;7.306;2022-12-29T02:23:11;1.70;;;1.30;;
11187;SDS011;5650;52.700;7.306;2022-12-29T02:26:11;3.28;;;1.40;;
11187;SDS011;5650;52.700;7.306;2022-12-29T02:29:06;2.33;;;1.33;;
11187;SDS011;5650;52.700;7.306;2022-12-29T02:32:15;1.48;;;1.15;;
11187;SDS011;5650;52.700;7.306;2022-12-29T02:34:52;5.05;;;1.45;;
11187;SDS011;5650;52.700;7.306;2022-12-29T02:37:31;2.70;;;1.00;;
11187;SDS011;5650;52.700;7.306;2022-12-29T02:40:10;0.88;;;0.80;;
11187;SDS011;5650;52.700;7.306;2022-12-29T02:42:45;3.13;;;1.08;;
11187;SDS011;5650;52.700;7.306;2022-12-29T02:45:16;1.25;;;1.02;;
11187;SDS011;5650;52.700;7.306;2022-12-29T02:47:50;1.38;;;0.88;;
11187;SDS011;5650;52.700;7.306;2022-12-29T02:50:28;1.35;;;0.73;;
11187;SDS011;5650;52.700;7.306;2022-12-29T02:53:01;2.13;;;1.08;;
11187;SDS011;5650;52.700;7.306;2022-12-29T02:55:31;2.22;;;0.80;;
11187;SDS011;5650;52.700;7.306;2022-12-29T02:58:13;0.80;;;0.70;;
11187;SDS011;5650;52.700;7.306;2022-12-29T03:00:47;1.88;;;0.70;;
11187;SDS011;5650;52.700;7.306;2022-12-29T03:03:25;0.70;;;0.70;;
11187;SDS011;5650;52.700;7.306;2022-12-29T03:06:10;3.33;;;0.77;;
11187;SDS011;5650;52.700;7.306;2022-12-29T03:08:48;1.25;;;1.00;;
11187;SDS011;5650;52.700;7.306;2022-12-29T03:11:21;1.08;;;0.98;;
11187;SDS011;5650;52.700;7.306;2022-12-29T03:14:15;1.27;;;0.80;;
11187;SDS011;5650;52.700;7.306;2022-12-29T03:17:06;4.35;;;1.02;;
11187;SDS011;5650;52.700;7.306;2022-12-29T03:19:46;1.10;;;1.00;;
11187;SDS011;5650;52.700;7.306;2022-12-29T03:22:17;1.25;;;1.10;;
11187;SDS011;5650;52.700;7.306;2022-12-29T03:24:59;1.30;;;1.20;;
11187;SDS011;5650;52.700;7.306;2022-12-29T03:27:31;1.80;;;1.15;;
11187;SDS011;5650;52.700;7.306;2022-12-29T03:30:07;1.10;;;1.02;;
11187;SDS011;5650;52.700;7.306;2022-12-29T03:32:36;2.55;;;1.38;;
11187;SDS011;5650;52.700;7.306;2022-12-29T03:35:09;1.98;;;1.35;;
11187;SDS011;5650;52.700;7.306;2022-12-29T03:37:41;2.08;;;1.40;;
11187;SDS011;5650;52.700;7.306;2022-12-29T03:40:16;4.40;;;1.38;;
11187;SDS011;5650;52.700;7.306;2022-12-29T03:42:44;1.73;;;1.38;;
11187;SDS011;5650;52.700;7.306;2022-12-29T03:45:13;4.38;;;1.40;;
11187;SDS011;5650;52.700;7.306;2022-12-29T03:47:40;1.60;;;1.30;;
11187;SDS011;5650;52.700;7.306;2022-12-29T03:50:11;1.35;;;1.25;;
11187;SDS011;5650;52.700;7.306;2022-12-29T03:52:38;1.35;;;1.02;;
11187;SDS011;5650;52.700;7.306;2022-12-29T03:55:11;2.92;;;1.40;;
11187;SDS011;5650;52.700;7.306;2022-12-29T03:57:38;2.28;;;1.33;;
11187;SDS011;5650;52.700;7.306;2022-12-29T04:00:09;1.42;;;1.00;;
11187;SDS011;5650;52.700;7.306;2022-12-29T04:02:37;3.90;;;1.10;;
11187;SDS011;5650;52.700;7.306;2022-12-29T04:05:04;3.58;;;1.42;;
11187;SDS011;5650;52.700;7.306;2022-12-29T04:07:34;4.35;;;1.48;;
11187;SDS011;5650;52.700;7.306;2022-12-29T04:10:01;1.80;;;1.25;;
11187;SDS011;5650;52.700;7.306;2022-12-29T04:12:28;2.20;;;1.00;;
11187;SDS011;5650;52.700;7.306;2022-12-29T04:14:56;2.08;;;1.10;;
11187;SDS011;5650;52.700;7.306;2022-12-29T04:17:26;4.22;;;1.17;;
11187;SDS011;5650;52.700;7.306;2022-12-29T04:19:53;2.92;;;1.10;;
11187;SDS011;5650;52.700;7.306;2022-12-29T04:22:42;3.97;;;1.10;;
11187;SDS011;5650;52.700;7.306;2022-12-29T04:25:09;1.67;;;0.70;;
11187;SDS011;5650;52.700;7.306;2022-12-29T04:27:36;1.58;;;1.00;;
11187;SDS011;5650;52.700;7.306;2022-12-29T04:30:04;1.67;;;1.10;;
11187;SDS011;5650;52.700;7.306;2022-12-29T04:32:32;0.93;;;0.80;;
11187;SDS011;5650;52.700;7.306;2022-12-29T04:34:59;1.48;;;0.85;;
11187;SDS011;5650;52.700;7.306;2022-12-29T04:37:26;1.00;;;0.73;;
11187;SDS011;5650;52.700;7.306;2022-12-29T04:39:57;1.40;;;0.80;;
11187;SDS011;5650;52.700;7.306;2022-12-29T04:42:25;1.25;;;0.70;;
11187;SDS011;5650;52.700;7.306;2022-12-29T04:44:52;0.77;;;0.65;;
11187;SDS011;5650;52.700;7.306;2022-12-29T04:47:22;1.35;;;0.63;;
11187;SDS011;5650;52.700;7.306;2022-12-29T04:49:49;2.13;;;0.90;;
11187;SDS011;5650;52.700;7.306;2022-12-29T04:52:16;1.77;;;0.98;;
11187;SDS011;5650;52.700;7.306;2022-12-29T04:54:43;1.92;;;1.02;;
11187;SDS011;5650;52.700;7.306;2022-12-29T04:57:12;2.92;;;0.80;;
11187;SDS011;5650;52.700;7.306;2022-12-29T04:59:39;2.95;;;1.20;;
11187;SDS011;5650;52.700;7.306;2022-12-29T05:02:07;1.70;;;0.93;;
11187;SDS011;5650;52.700;7.306;2022-12-29T05:04:34;2.22;;;1.23;;
11187;SDS011;5650;52.700;7.306;2022-12-29T05:07:01;2.47;;;1.08;;
11187;SDS011;5650;52.700;7.306;2022-12-29T05:09:28;3.20;;;1.00;;
11187;SDS011;5650;52.700;7.306;2022-12-29T05:11:56;2.88;;;1.00;;
11187;SDS011;5650;52.700;7.306;2022-12-29T05:14:27;2.53;;;1.45;;
11187;SDS011;5650;52.700;7.306;2022-12-29T05:16:54;3.28;;;1.15;;
11187;SDS011;5650;52.700;7.306;2022-12-29T05:19:21;5.63;;;1.30;;
11187;SDS011;5650;52.700;7.306;2022-12-29T05:21:48;2.42;;;1.15;;
11187;SDS011;5650;52.700;7.306;2022-12-29T05:24:15;2.13;;;1.30;;
11187;SDS011;5650;52.700;7.306;2022-12-29T05:26:42;3.50;;;1.35;;
11187;SDS011;5650;52.700;7.306;2022-12-29T05:29:13;3.38;;;1.38;;
11187;SDS011;5650;52.700;7.306;2022-12-29T05:31:44;4.22;;;1.30;;
11187;SDS011;5650;52.700;7.306;2022-12-29T05:34:14;4.20;;;1.23;;
11187;SDS011;5650;52.700;7.306;2022-12-29T05:36:42;6.88;;;1.70;;
11187;SDS011;5650;52.700;7.306;2022-12-29T05:39:12;4.93;;;1.50;;
11187;SDS011;5650;52.700;7.306;2022-12-29T05:41:39;3.65;;;1.70;;
11187;SDS011;5650;52.700;7.306;2022-12-29T05:44:06;2.63;;;1.27;;
11187;SDS011;5650;52.700;7.306;2022-12-29T05:46:33;3.35;;;1.40;;
11187;SDS011;5650;52.700;7.306;2022-12-29T05:49:02;3.28;;;1.25;;
11187;SDS011;5650;52.700;7.306;2022-12-29T05:51:29;4.50;;;1.10;;
11187;SDS011;5650;52.700;7.306;2022-12-29T05:53:56;4.32;;;1.35;;
11187;SDS011;5650;52.700;7.306;2022-12-29T05:56:23;4.13;;;1.38;;
11187;SDS011;5650;52.700;7.306;2022-12-29T05:58:53;6.03;;;1.08;;
11187;SDS011;5650;52.700;7.306;2022-12-29T06:01:29;5.88;;;1.50;;
11187;SDS011;5650;52.700;7.306;2022-12-29T06:03:59;5.13;;;1.20;;
11187;SDS011;5650;52.700;7.306;2022-12-29T06:06:31;4.25;;;1.50;;
11187;SDS011;5650;52.700;7.306;2022-12-29T06:08:59;6.78;;;2.25;;
11187;SDS011;5650;52.700;7.306;2022-12-29T06:11:26;4.13;;;1.27;;
11187;SDS011;5650;52.700;7.306;2022-12-29T06:13:56;2.70;;;1.20;;
11187;SDS011;5650;52.700;7.306;2022-12-29T06:16:23;4.93;;;1.67;;
11187;SDS011;5650;52.700;7.306;2022-12-29T06:18:50;6.90;;;1.50;;
11187;SDS011;5650;52.700;7.306;2022-12-29T06:21:22;7.28;;;1.30;;
11187;SDS011;5650;52.700;7.306;2022-12-29T06:23:49;3.30;;;1.20;;
11187;SDS011;5650;52.700;7.306;2022-12-29T06:26:17;4.68;;;1.20;;
11187;SDS011;5650;52.700;7.306;2022-12-29T06:28:44;6.57;;;1.52;;
11187;SDS011;5650;52.700;7.306;2022-12-29T06:31:14;6.80;;;1.30;;
11187;SDS011;5650;52.700;7.306;2022-12-29T06:33:50;8.07;;;1.48;;
11187;SDS011;5650;52.700;7.306;2022-12-29T06:36:18;4.32;;;1.45;;
11187;SDS011;5650;52.700;7.306;2022-12-29T06:39:01;4.50;;;1.50;;
11187;SDS011;5650;52.700;7.306;2022-12-29T06:41:28;4.68;;;1.38;;
11187;SDS011;5650;52.700;7.306;2022-12-29T06:43:56;5.75;;;1.35;;
11187;SDS011;5650;52.700;7.306;2022-12-29T06:46:27;9.98;;;1.85;;
11187;SDS011;5650;52.700;7.306;2022-12-29T06:48:54;7.88;;;1.67;;
11187;SDS011;5650;52.700;7.306;2022-12-29T06:51:21;5.88;;;1.40;;
11187;SDS011;5650;52.700;7.306;2022-12-29T06:53:50;6.15;;;1.55;;
11187;SDS011;5650;52.700;7.306;2022-12-29T06:56:17;6.82;;;1.80;;
11187;SDS011;5650;52.700;7.306;2022-12-29T06:58:50;5.95;;;1.80;;
11187;SDS011;5650;52.700;7.306;2022-12-29T07:01:18;7.40;;;1.75;;
11187;SDS011;5650;52.700;7.306;2022-12-29T07:03:45;5.82;;;1.50;;
11187;SDS011;5650;52.700;7.306;2022-12-29T07:06:12;5.47;;;1.60;;
11187;SDS011;5650;52.700;7.306;2022-12-29T07:08:39;11.43;;;1.67;;
11187;SDS011;5650;52.700;7.306;2022-12-29T07:11:08;9.38;;;1.70;;
11187;SDS011;5650;52.700;7.306;2022-12-29T07:13:35;8.60;;;1.88;;
11187;SDS011;5650;52.700;7.306;2022-12-29T07:16:04;11.80;;;2.63;;
11187;SDS011;5650;52.700;7.306;2022-12-29T07:18:32;10.52;;;2.50;;
11187;SDS011;5650;52.700;7.306;2022-12-29T07:20:59;11.32;;;2.28;;
11187;SDS011;5650;52.700;7.306;2022-12-29T07:23:27;7.85;;;1.83;;
11187;SDS011;5650;52.700;7.306;2022-12-29T07:25:58;9.48;;;1.95;;
11187;SDS011;5650;52.700;7.306;2022-12-29T07:28:28;10.25;;;2.63;;
11187;SDS011;5650;52.700;7.306;2022-12-29T07:30:57;10.10;;;2.30;;
11187;SDS011;5650;52.700;7.306;2022-12-29T07:33:24;9.77;;;2.13;;
11187;SDS011;5650;52.700;7.306;2022-12-29T07:35:55;8.88;;;2.20;;
11187;SDS011;5650;52.700;7.306;2022-12-29T07:38:22;13.23;;;2.75;;
11187;SDS011;5650;52.700;7.306;2022-12-29T07:40:50;9.48;;;2.28;;
11187;SDS011;5650;52.700;7.306;2022-12-29T07:43:17;7.15;;;2.03;;
11187;SDS011;5650;52.700;7.306;2022-12-29T07:45:46;10.40;;;2.38;;
11187;SDS011;5650;52.700;7.306;2022-12-29T07:48:14;7.85;;;1.90;;
11187;SDS011;5650;52.700;7.306;2022-12-29T07:50:41;12.52;;;2.45;;
11187;SDS011;5650;52.700;7.306;2022-12-29T07:53:08;6.97;;;2.28;;
11187;SDS011;5650;52.700;7.306;2022-12-29T07:55:35;7.90;;;1.98;;
11187;SDS011;5650;52.700;7.306;2022-12-29T07:58:06;8.43;;;1.80;;
11187;SDS011;5650;52.700;7.306;2022-12-29T08:00:33;7.03;;;1.48;;
11187;SDS011;5650;52.700;7.306;2022-12-29T08:03:02;8.93;;;1.90;;
11187;SDS011;5650;52.700;7.306;2022-12-29T08:05:29;4.95;;;1.77;;
11187;SDS011;5650;52.700;7.306;2022-12-29T08:07:57;7.68;;;2.50;;
11187;SDS011;5650;52.700;7.306;2022-12-29T08:10:24;5.90;;;2.17;;
11187;SDS011;5650;52.700;7.306;2022-12-29T08:12:52;8.88;;;2.03;;
11187;SDS011;5650;52.700;7.306;2022-12-29T08:15:19;7.60;;;1.90;;
11187;SDS011;5650;52.700;7.306;2022-12-29T08:17:46;6.65;;;1.83;;
11187;SDS011;5650;52.700;7.306;2022-12-29T08:20:15;10.20;;;2.05;;
11187;SDS011;5650;52.700;7.306;2022-12-29T08:22:42;5.93;;;2.10;;
11187;SDS011;5650;52.700;7.306;2022-12-29T08:25:09;6.32;;;1.70;;
11187;SDS011;5650;52.700;7.306;2022-12-29T08:27:36;6.57;;;1.40;;
11187;SDS011;5650;52.700;7.306;2022-12-29T08:30:04;11.48;;;2.22;;
11187;SDS011;5650;52.700;7.306;2022-12-29T08:32:32;9.70;;;1.80;;
11187;SDS011;5650;52.700;7.306;2022-12-29T08:34:59;8.70;;;2.10;;
11187;SDS011;5650;52.700;7.306;2022-12-29T08:37:30;7.28;;;1.92;;
11187;SDS011;5650;52.700;7.306;2022-12-29T08:39:58;13.10;;;3.13;;
11187;SDS011;5650;52.700;7.306;2022-12-29T08:42:28;9.77;;;2.13;;
11187;SDS011;5650;52.700;7.306;2022-12-29T08:44:56;7.95;;;1.75;;
11187;SDS011;5650;52.700;7.306;2022-12-29T08:47:23;10.98;;;2.20;;
11187;SDS011;5650;52.700;7.306;2022-12-29T08:49:50;12.68;;;2.30;;
11187;SDS011;5650;52.700;7.306;2022-12-29T08:52:18;9.40;;;2.03;;
11187;SDS011;5650;52.700;7.306;2022-12-29T08:54:47;11.73;;;2.15;;
11187;SDS011;5650;52.700;7.306;2022-12-29T08:57:14;9.07;;;1.88;;
11187;SDS011;5650;52.700;7.306;2022-12-29T08:59:41;10.48;;;1.67;;
11187;SDS011;5650;52.700;7.306;2022-12-29T09:02:11;8.68;;;1.75;;
11187;SDS011;5650;52.700;7.306;2022-12-29T09:04:39;7.72;;;1.83;;
11187;SDS011;5650;52.700;7.306;2022-12-29T09:07:06;9.18;;;2.50;;
11187;SDS011;5650;52.700;7.306;2022-12-29T09:09:33;8.70;;;2.00;;
11187;SDS011;5650;52.700;7.306;2022-12-29T09:12:02;9.65;;;1.75;;
11187;SDS011;5650;52.700;7.306;2022-12-29T09:14:30;11.35;;;2.38;;
11187;SDS011;5650;52.700;7.306;2022-12-29T09:16:57;7.05;;;1.42;;
11187;SDS011;5650;52.700;7.306;2022-12-29T09:19:42;9.10;;;2.05;;
11187;SDS011;5650;52.700;7.306;2022-12-29T09:22:09;7.00;;;1.80;;
11187;SDS011;5650;52.700;7.306;2022-12-29T09:24:39;5.45;;;1.60;;
11187;SDS011;5650;52.700;7.306;2022-12-29T09:27:07;3.20;;;1.10;;
11187;SDS011;5650;52.700;7.306;2022-12-29T09:29:34;5.32;;;1.38;;
11187;SDS011;5650;52.700;7.306;2022-12-29T09:32:01;4.10;;;1.40;;
11187;SDS011;5650;52.700;7.306;2022-12-29T09:34:32;4.75;;;1.33;;
11187;SDS011;5650;52.700;7.306;2022-12-29T09:36:59;6.78;;;1.27;;
11187;SDS011;5650;52.700;7.306;2022-12-29T09:39:26;5.95;;;1.33;;
11187;SDS011;5650;52.700;7.306;2022-12-29T09:41:58;4.35;;;1.70;;
11187;SDS011;5650;52.700;7.306;2022-12-29T09:44:38;6.65;;;1.52;;
11187;SDS011;5650;52.700;7.306;2022-12-29T09:47:17;3.97;;;1.20;;
11187;SDS011;5650;52.700;7.306;2022-12-29T09:49:47;4.97;;;1.45;;
11187;SDS011;5650;52.700;7.306;2022-12-29T09:52:18;9.35;;;2.05;;
11187;SDS011;5650;52.700;7.306;2022-12-29T09:54:55;8.77;;;1.92;;
11187;SDS011;5650;52.700;7.306;2022-12-29T09:57:24;7.15;;;1.83;;
11187;SDS011;5650;52.700;7.306;2022-12-29T09:59:55;6.35;;;2.13;;
11187;SDS011;5650;52.700;7.306;2022-12-29T10:02:31;9.77;;;2.40;;
11187;SDS011;5650;52.700;7.306;2022-12-29T10:05:03;7.72;;;2.33;;
11187;SDS011;5650;52.700;7.306;2022-12-29T10:07:40;7.00;;;2.00;;
11187;SDS011;5650;52.700;7.306;2022-12-29T10:10:17;10.48;;;2.15;;
11187;SDS011;5650;52.700;7.306;2022-12-29T10:15:52;9.98;;;2.20;;
11187;SDS011;5650;52.700;7.306;2022-12-29T10:21:18;7.05;;;2.20;;
11187;SDS011;5650;52.700;7.306;2022-12-29T10:24:03;11.32;;;2.08;;
11187;SDS011;5650;52.700;7.306;2022-12-29T10:26:36;7.18;;;2.00;;
11187;SDS011;5650;52.700;7.306;2022-12-29T10:29:08;10.43;;;2.60;;
11187;SDS011;5650;52.700;7.306;2022-12-29T10:31:54;8.32;;;1.92;;
11187;SDS011;5650;52.700;7.306;2022-12-29T10:34:31;10.07;;;2.33;;
11187;SDS011;5650;52.700;7.306;2022-12-29T10:37:09;7.72;;;2.05;;
11187;SDS011;5650;52.700;7.306;2022-12-29T10:39:48;14.38;;;5.70;;
11187;SDS011;5650;52.700;7.306;2022-12-29T10:42:19;12.77;;;6.28;;
11187;SDS011;5650;52.700;7.306;2022-12-29T10:44:55;15.10;;;2.50;;
11187;SDS011;5650;52.700;7.306;2022-12-29T10:47:31;10.25;;;2.35;;
11187;SDS011;5650;52.700;7.306;2022-12-29T10:50:04;10.88;;;4.05;;
11187;SDS011;5650;52.700;7.306;2022-12-29T10:52:32;26.42;;;14.45;;
11187;SDS011;5650;52.700;7.306;2022-12-29T10:55:02;13.43;;;3.20;;
11187;SDS011;5650;52.700;7.306;2022-12-29T10:57:33;12.90;;;5.93;;
11187;SDS011;5650;52.700;7.306;2022-12-29T11:00:01;11.35;;;2.70;;
11187;SDS011;5650;52.700;7.306;2022-12-29T11:02:47;10.68;;;2.22;;
11187;SDS011;5650;52.700;7.306;2022-12-29T11:05:46;12.57;;;2.75;;
11187;SDS011;5650;52.700;7.306;2022-12-29T11:08:25;8.52;;;2.20;;
11187;SDS011;5650;52.700;7.306;2022-12-29T11:10:58;10.90;;;1.90;;
11187;SDS011;5650;52.700;7.306;2022-12-29T11:13:27;11.23;;;2.33;;
11187;SDS011;5650;52.700;7.306;2022-12-29T11:15:56;8.70;;;2.20;;
11187;SDS011;5650;52.700;7.306;2022-12-29T11:18:27;12.75;;;2.58;;
11187;SDS011;5650;52.700;7.306;2022-12-29T11:21:05;9.68;;;2.30;;
11187;SDS011;5650;52.700;7.306;2022-12-29T11:23:54;10.13;;;2.17;;
11187;SDS011;5650;52.700;7.306;2022-12-29T11:26:32;6.32;;;2.22;;
11187;SDS011;5650;52.700;7.306;2022-12-29T11:32:10;6.88;;;1.95;;
11187;SDS011;5650;52.700;7.306;2022-12-29T11:34:44;9.32;;;1.90;;
11187;SDS011;5650;52.700;7.306;2022-12-29T11:37:13;12.63;;;2.15;;
11187;SDS011;5650;52.700;7.306;2022-12-29T11:39:46;9.48;;;2.08;;
11187;SDS011;5650;52.700;7.306;2022-12-29T11:42:22;6.80;;;1.83;;
11187;SDS011;5650;52.700;7.306;2022-12-29T11:44:59;8.02;;;1.80;;
11187;SDS011;5650;52.700;7.306;2022-12-29T11:47:32;7.40;;;2.15;;
11187;SDS011;5650;52.700;7.306;2022-12-29T11:50:06;9.10;;;2.67;;
11187;SDS011;5650;52.700;7.306;2022-12-29T11:52:35;8.57;;;2.45;;
11187;SDS011;5650;52.700;7.306;2022-12-29T11:55:16;8.40;;;2.17;;
11187;SDS011;5650;52.700;7.306;2022-12-29T11:57:44;8.32;;;1.88;;
11187;SDS011;5650;52.700;7.306;2022-12-29T12:00:16;9.80;;;1.85;;
11187;SDS011;5650;52.700;7.306;2022-12-29T12:02:50;11.68;;;1.95;;
11187;SDS011;5650;52.700;7.306;2022-12-29T12:05:27;6.82;;;1.80;;
11187;SDS011;5650;52.700;7.306;2022-12-29T12:08:08;9.68;;;3.35;;
11187;SDS011;5650;52.700;7.306;2022-12-29T12:10:42;7.28;;;2.08;;
11187;SDS011;5650;52.700;7.306;2022-12-29T12:13:17;4.75;;;2.15;;
11187;SDS011;5650;52.700;7.306;2022-12-29T12:15:50;12.23;;;2.47;;
11187;SDS011;5650;52.700;7.306;2022-12-29T12:18:23;5.32;;;2.08;;
11187;SDS011;5650;52.700;7.306;2022-12-29T12:21:00;13.48;;;6.18;;
11187;SDS011;5650;52.700;7.306;2022-12-29T12:26:42;9.82;;;3.17;;
11187;SDS011;5650;52.700;7.306;2022-12-29T12:29:22;7.57;;;2.17;;
11187;SDS011;5650;52.700;7.306;2022-12-29T12:31:59;5.82;;;1.63;;
11187;SDS011;5650;52.700;7.306;2022-12-29T12:34:32;8.55;;;2.28;;
11187;SDS011;5650;52.700;7.306;2022-12-29T12:37:19;7.32;;;2.45;;
11187;SDS011;5650;52.700;7.306;2022-12-29T12:40:18;4.25;;;1.50;;
11187;SDS011;5650;52.700;7.306;2022-12-29T12:43:28;6.00;;;2.30;;
11187;SDS011;5650;52.700;7.306;2022-12-29T12:46:10;7.07;;;1.88;;
11187;SDS011;5650;52.700;7.306;2022-12-29T12:48:50;6.82;;;2.10;;
11187;SDS011;5650;52.700;7.306;2022-12-29T12:51:58;14.50;;;2.75;;
11187;SDS011;5650;52.700;7.306;2022-12-29T12:54:42;9.52;;;2.28;;
11187;SDS011;5650;52.700;7.306;2022-12-29T12:57:28;15.45;;;2.92;;
11187;SDS011;5650;52.700;7.306;2022-12-29T13:00:09;11.35;;;2.45;;
11187;SDS011;5650;52.700;7.306;2022-12-29T13:02:49;12.10;;;2.17;;
11187;SDS011;5650;52.700;7.306;2022-12-29T13:05:46;10.93;;;2.67;;
11187;SDS011;5650;52.700;7.306;2022-12-29T13:08:42;10.52;;;2.42;;
11187;SDS011;5650;52.700;7.306;2022-12-29T13:11:38;8.15;;;2.33;;
11187;SDS011;5650;52.700;7.306;2022-12-29T13:14:28;9.60;;;2.55;;
11187;SDS011;5650;52.700;7.306;2022-12-29T13:17:19;7.43;;;2.78;;
11187;SDS011;5650;52.700;7.306;2022-12-29T13:19:54;11.32;;;2.70;;
11187;SDS011;5650;52.700;7.306;2022-12-29T13:22:29;8.73;;;2.63;;
11187;SDS011;5650;52.700;7.306;2022-12-29T13:25:14;11.65;;;2.88;;
11187;SDS011;5650;52.700;7.306;2022-12-29T13:28:09;8.27;;;2.42;;
11187;SDS011;5650;52.700;7.306;2022-12-29T13:30:48;12.52;;;3.10;;
11187;SDS011;5650;52.700;7.306;2022-12-29T13:33:28;9.30;;;3.22;;
11187;SDS011;5650;52.700;7.306;2022-12-29T13:36:13;9.50;;;3.05;;
11187;SDS011;5650;52.700;7.306;2022-12-29T13:38:51;14.30;;;2.88;;
11187;SDS011;5650;52.700;7.306;2022-12-29T13:41:29;12.77;;;3.03;;
11187;SDS011;5650;52.700;7.306;2022-12-29T13:44:04;10.63;;;2.63;;
11187;SDS011;5650;52.700;7.306;2022-12-29T13:46:35;14.55;;;3.58;;
11187;SDS011;5650;52.700;7.306;2022-12-29T13:49:08;15.45;;;2.88;;
11187;SDS011;5650;52.700;7.306;2022-12-29T13:51:48;12.93;;;2.63;;
11187;SDS011;5650;52.700;7.306;2022-12-29T13:54:20;14.43;;;3.15;;
11187;SDS011;5650;52.700;7.306;2022-12-29T13:56:52;11.40;;;2.95;;
11187;SDS011;5650;52.700;7.306;2022-12-29T13:59:44;10.63;;;3.20;;
11187;SDS011;5650;52.700;7.306;2022-12-29T14:02:19;11.05;;;3.22;;
11187;SDS011;5650;52.700;7.306;2022-12-29T14:04:56;13.45;;;3.63;;
11187;SDS011;5650;52.700;7.306;2022-12-29T14:07:28;15.63;;;3.97;;
11187;SDS011;5650;52.700;7.306;2022-12-29T14:10:01;10.20;;;2.88;;
11187;SDS011;5650;52.700;7.306;2022-12-29T14:12:33;10.05;;;4.25;;
11187;SDS011;5650;52.700;7.306;2022-12-29T14:15:18;12.70;;;3.92;;
11187;SDS011;5650;52.700;7.306;2022-12-29T14:23:44;10.93;;;2.80;;
11187;SDS011;5650;52.700;7.306;2022-12-29T14:26:17;13.38;;;3.08;;
11187;SDS011;5650;52.700;7.306;2022-12-29T14:31:44;12.25;;;3.25;;
11187;SDS011;5650;52.700;7.306;2022-12-29T14:34:15;11.38;;;2.97;;
11187;SDS011;5650;52.700;7.306;2022-12-29T14:36:52;11.93;;;3.80;;
11187;SDS011;5650;52.700;7.306;2022-12-29T14:39:28;10.35;;;3.00;;
11187;SDS011;5650;52.700;7.306;2022-12-29T14:42:10;10.50;;;3.53;;
11187;SDS011;5650;52.700;7.306;2022-12-29T14:44:46;15.32;;;3.90;;
11187;SDS011;5650;52.700;7.306;2022-12-29T14:47:20;15.05;;;3.53;;
11187;SDS011;5650;52.700;7.306;2022-12-29T14:50:03;13.48;;;3.90;;
11187;SDS011;5650;52.700;7.306;2022-12-29T14:52:45;13.82;;;4.82;;
11187;SDS011;5650;52.700;7.306;2022-12-29T14:55:30;10.13;;;2.97;;
11187;SDS011;5650;52.700;7.306;2022-12-29T14:58:04;13.52;;;3.67;;
11187;SDS011;5650;52.700;7.306;2022-12-29T15:00:34;13.23;;;2.95;;
11187;SDS011;5650;52.700;7.306;2022-12-29T15:03:04;13.25;;;2.95;;
11187;SDS011;5650;52.700;7.306;2022-12-29T15:05:36;13.90;;;3.47;;
11187;SDS011;5650;52.700;7.306;2022-12-29T15:08:16;11.10;;;3.50;;
11187;SDS011;5650;52.700;7.306;2022-12-29T15:10:47;13.07;;;3.72;;
11187;SDS011;5650;52.700;7.306;2022-12-29T15:13:34;15.90;;;3.75;;
11187;SDS011;5650;52.700;7.306;2022-12-29T15:16:21;15.52;;;3.22;;
11187;SDS011;5650;52.700;7.306;2022-12-29T15:18:51;14.65;;;3.85;;
11187;SDS011;5650;52.700;7.306;2022-12-29T15:21:20;16.15;;;3.97;;
11187;SDS011;5650;52.700;7.306;2022-12-29T15:23:50;19.85;;;4.13;;
11187;SDS011;5650;52.700;7.306;2022-12-29T15:26:18;14.57;;;4.57;;
11187;SDS011;5650;52.700;7.306;2022-12-29T15:31:20;21.05;;;5.82;;
11187;SDS011;5650;52.700;7.306;2022-12-29T15:34:09;15.30;;;5.30;;
11187;SDS011;5650;52.700;7.306;2022-12-29T15:36:43;20.85;;;4.03;;
11187;SDS011;5650;52.700;7.306;2022-12-29T15:39:17;14.85;;;4.50;;
11187;SDS011;5650;52.700;7.306;2022-12-29T15:41:49;12.15;;;3.78;;
11187;SDS011;5650;52.700;7.306;2022-12-29T15:44:43;16.13;;;4.20;;
11187;SDS011;5650;52.700;7.306;2022-12-29T15:47:11;15.48;;;4.07;;
11187;SDS011;5650;52.700;7.306;2022-12-29T15:49:46;17.63;;;6.22;;
11187;SDS011;5650;52.700;7.306;2022-12-29T15:52:17;13.95;;;4.22;;
11187;SDS011;5650;52.700;7.306;2022-12-29T15:54:45;17.33;;;4.43;;
11187;SDS011;5650;52.700;7.306;2022-12-29T15:57:16;16.48;;;4.90;;
11187;SDS011;5650;52.700;7.306;2022-12-29T15:59:49;14.00;;;4.38;;
11187;SDS011;5650;52.700;7.306;2022-12-29T16:02:17;11.63;;;3.78;;